Date,TemperatureHighF,TemperatureAvgF,TemperatureLowF,DewpointHighF,DewpointAvgF,DewpointLowF,HumidityHigh,HumidityAvg,HumidityLow,PressureMaxIn,PressureMinIn,WindSpeedMaxMPH,WindSpeedAvgMPH,GustSpeedMaxMPH,PrecipitationSumIn
2013-1-1,66,51,42,44,38,20,90,65,25,30.27,30.12,15,1,15,0.00
2013-1-2,69,54,42,38,31,20,82,45,18,30.17,30.06,9,2,13,0.00
2013-1-3,74,52,36,45,36,21,85,62,15,30.20,30.09,10,1,13,0.00
2013-1-4,69,50,37,44,34,19,85,61,17,30.32,30.20,8,1,9,0.00
2013-1-5,68,50,36,46,37,26,88,66,24,30.33,30.21,9,1,9,0.00
2013-1-6,58,51,45,52,46,42,97,84,60,30.25,30.05,16,2,16,0.00
2013-1-7,66,52,39,48,43,35,96,76,33,30.14,30.01,10,1,12,0.00
2013-1-8,67,52,39,55,46,36,95,82,58,30.15,30.05,8,1,10,0.00
2013-1-9,68,54,42,55,49,41,96,87,56,30.17,30.04,8,1,9,0.00
2013-1-10,60,54,47,52,40,27,94,62,29,30.13,29.94,20,4,23,0.00
2013-1-11,57,49,37,34,27,23,70,43,28,30.22,30.09,15,4,17,0.00
2013-1-12,60,46,34,36,30,22,79,55,24,30.21,30.10,12,2,12,0.00
2013-1-13,58,45,33,35,29,20,83,57,26,30.21,30.09,11,1,11,0.03
2013-1-14,62,47,39,29,15,4,59,29,13,30.36,30.17,17,4,19,0.01
2013-1-15,62,47,33,38,27,16,77,52,19,30.50,30.36,9,1,11,0.10
2013-1-16,71,52,36,43,36,28,84,59,22,30.39,30.14,8,1,8,0.00
2013-1-17,84,60,41,39,28,15,79,39,8,30.20,30.07,19,2,19,0.00
2013-1-18,86,59,41,40,34,23,74,44,11,30.17,30.06,13,1,15,0.00
2013-1-19,79,60,42,39,32,24,75,41,14,30.21,30.09,8,1,8,0.00
2013-1-20,88,60,42,46,31,12,66,39,7,30.17,30.01,11,1,12,0.00
2013-1-21,82,60,40,37,31,17,71,41,9,30.12,30.01,9,1,12,0.00
2013-1-22,84,57,39,41,36,16,84,52,9,30.13,30.03,9,1,9,0.00
2013-1-23,76,63,51,54,40,31,86,45,25,30.17,30.03,11,1,12,0.01
2013-1-24,73,60,54,58,55,52,95,83,60,30.23,30.12,11,3,13,0.05
2013-1-25,70,62,59,62,59,57,96,89,72,30.14,29.96,15,2,15,0.02
2013-1-26,71,60,56,64,58,55,97,94,74,30.02,29.92,8,2,11,0.01
2013-1-27,62,56,48,56,50,42,97,83,63,30.06,29.99,11,2,12,0.02
2013-1-28,64,51,39,45,37,28,91,62,28,30.21,30.05,15,3,18,0.00
2013-1-29,61,50,39,46,41,35,88,74,45,30.28,30.19,11,1,12,0.00
2013-1-30,70,54,41,50,44,38,92,73,42,30.38,30.24,9,1,10,0.00
2013-1-31,80,59,43,49,44,39,90,63,25,30.27,30.10,8,1,10,0.00
2013-2-1,75,59,44,52,46,40,88,67,35,30.19,30.12,10,1,12,0.00
2013-2-2,75,62,53,56,51,46,89,70,38,30.22,30.11,8,1,8,0.00
2013-2-3,77,62,53,57,53,48,93,76,40,30.16,30.02,13,2,13,0.00
2013-2-4,64,55,48,57,52,47,98,91,75,30.14,30.01,11,1,12,0.01
2013-2-5,62,56,53,53,51,50,91,85,72,30.14,30.02,7,1,10,0.00
2013-2-6,65,57,49,52,50,46,91,79,63,30.14,30.03,12,1,13,0.00
2013-2-7,64,53,44,54,48,42,95,82,66,30.18,30.02,11,2,11,0.00
2013-2-8,56,50,43,50,44,41,93,78,63,30.04,29.92,15,3,18,0.13
2013-2-9,58,48,37,46,41,36,96,79,51,30.14,29.97,11,1,11,0.14
2013-2-10,63,50,40,49,43,38,92,79,58,30.15,30.05,9,1,10,0.00
2013-2-11,64,51,40,48,42,35,94,73,37,30.27,30.09,12,1,14,0.00
2013-2-12,64,51,40,49,40,32,87,68,36,30.39,30.27,10,2,12,0.00
2013-2-13,66,52,39,48,42,35,87,70,40,30.30,30.16,9,1,10,0.00
2013-2-14,74,55,41,55,45,38,90,71,37,30.25,30.08,9,1,11,0.00
2013-2-15,88,66,46,45,34,20,86,39,10,30.21,30.12,16,3,16,0.00
2013-2-16,84,64,45,37,29,17,64,32,10,30.17,29.99,12,1,12,0.00
2013-2-17,69,56,45,54,48,36,96,76,49,30.06,29.95,10,2,11,0.00
2013-2-18,64,56,53,50,48,44,83,73,59,30.10,29.99,9,3,11,0.00
2013-2-19,58,53,47,49,44,41,93,71,59,30.02,29.74,13,4,17,0.09
2013-2-20,61,52,44,46,36,30,82,57,38,30.02,29.74,17,4,18,0.22
2013-2-21,67,52,43,47,42,37,86,69,37,30.12,30.00,10,2,11,0.00
2013-2-22,66,52,40,50,44,36,89,76,52,30.24,30.12,10,2,12,0.00
2013-2-23,63,52,41,51,45,37,91,77,46,30.19,29.96,12,2,15,0.00
2013-2-24,76,58,42,46,30,13,94,46,11,30.23,30.02,16,3,18,0.00
2013-2-25,67,54,40,49,36,26,87,54,23,30.26,30.10,12,2,15,0.00
2013-2-26,72,54,40,52,44,35,88,70,30,30.13,30.01,13,1,14,0.00
2013-2-27,81,60,44,46,33,17,84,45,10,30.28,30.13,12,2,12,0.00
2013-2-28,81,61,43,43,32,18,77,42,10,30.34,30.24,12,1,13,0.00
2013-3-1,91,68,47,39,32,22,70,34,9,30.32,30.14,18,2,18,0.00
2013-3-2,82,67,51,50,37,29,76,37,15,30.22,30.08,10,2,13,0.00
2013-3-3,67,59,54,56,53,50,94,83,61,30.13,30.00,11,2,12,0.00
2013-3-4,69,58,54,55,52,51,91,82,59,30.13,30.04,12,2,13,0.00
2013-3-5,68,57,52,56,52,48,93,83,63,30.15,30.06,10,2,14,0.00
2013-3-6,66,57,48,52,47,43,90,70,49,30.19,30.04,11,2,13,0.00
2013-3-7,63,57,54,53,50,47,93,80,62,30.04,29.87,12,2,12,0.00
2013-3-8,58,53,48,51,47,43,94,81,62,30.05,29.81,15,3,17,0.05
2013-3-9,65,55,46,49,47,42,94,76,49,30.25,30.04,13,2,13,0.02
2013-3-10,75,59,43,51,44,35,91,65,25,30.30,30.17,11,2,12,0.01
2013-3-11,74,58,45,55,48,40,91,72,42,30.21,30.06,11,1,12,0.02
2013-3-12,76,59,47,58,52,46,98,79,54,30.12,30.02,9,1,10,0.01
2013-3-13,77,60,49,58,53,48,97,81,51,30.14,30.03,9,2,9,0.00
2013-3-14,78,62,52,61,54,48,98,79,39,30.12,30.02,9,2,10,0.00
2013-3-15,68,58,54,58,54,52,96,88,69,30.07,29.96,9,2,11,0.00
2013-3-16,66,57,52,56,52,50,96,86,69,30.01,29.92,10,2,12,0.00
2013-3-17,67,59,55,55,53,51,91,82,63,30.04,29.96,11,2,12,0.00
2013-3-18,66,59,54,55,52,51,88,79,65,30.11,30.01,9,2,9,0.00
2013-3-19,68,57,50,56,52,48,94,84,66,30.15,30.07,10,1,13,0.00
2013-3-20,70,60,52,59,54,50,94,83,62,30.12,29.98,11,2,15,0.00
2013-3-21,69,60,52,58,54,50,94,83,64,29.98,29.83,14,2,14,0.00
2013-3-22,68,59,52,57,54,50,95,83,64,29.94,29.84,13,2,14,0.00
2013-3-23,71,60,52,57,53,48,93,79,56,30.04,29.94,11,2,13,0.00
2013-3-24,75,62,56,59,54,50,93,77,51,30.05,29.90,12,2,14,0.00
2013-3-25,72,61,55,58,56,53,97,85,55,30.01,29.91,12,2,12,0.00
2013-3-26,68,61,56,57,54,53,94,80,63,30.00,29.92,11,2,11,0.00
2013-3-27,69,60,55,56,54,52,90,79,59,30.07,29.96,12,2,12,0.00
2013-3-28,74,62,56,59,55,53,91,78,56,30.10,30.02,12,2,13,0.00
2013-3-29,69,61,56,59,56,53,93,85,70,30.14,30.06,14,2,15,0.00
2013-3-30,68,61,57,58,55,50,92,81,58,30.16,30.07,13,2,14,0.00
2013-3-31,68,62,57,59,56,53,90,82,70,30.16,30.07,14,3,16,0.00
2013-4-1,68,61,56,56,53,50,89,77,57,30.20,30.09,14,3,16,0.00
2013-4-2,70,62,56,57,54,52,89,78,63,30.12,30.01,11,2,12,0.00
2013-4-3,74,62,55,61,56,53,94,82,61,30.11,30.00,12,2,13,0.00
2013-4-4,72,63,58,59,56,55,90,79,59,30.13,30.02,12,2,13,0.00
2013-4-5,68,62,58,59,57,55,93,85,70,30.12,30.02,14,3,16,0.00
2013-4-6,70,62,58,58,56,55,91,80,65,30.11,29.98,13,2,14,0.00
2013-4-7,70,62,57,59,56,53,92,81,64,30.00,29.83,13,3,14,0.00
2013-4-8,68,62,57,56,48,39,91,64,39,29.85,29.68,24,6,24,0.00
2013-4-9,77,63,50,51,42,26,82,51,18,30.03,29.83,15,3,16,0.00
2013-4-10,80,64,49,52,45,24,86,57,14,30.12,29.99,15,2,15,0.00
2013-4-11,77,62,52,57,51,45,84,71,35,30.03,29.81,14,2,16,0.00
2013-4-12,70,62,57,57,54,52,91,76,62,29.93,29.79,12,2,14,0.00
2013-4-13,62,58,56,57,55,51,95,88,80,29.94,29.87,9,2,10,0.00
2013-4-14,65,59,55,55,52,50,87,80,68,29.91,29.84,11,3,12,0.00
2013-4-15,66,59,56,56,53,50,92,79,65,29.93,29.86,15,3,17,0.05
2013-4-16,68,59,52,51,45,29,83,63,31,30.01,29.90,17,3,20,0.00
2013-4-17,79,64,55,45,31,16,67,31,12,30.14,30.01,16,4,17,0.00
2013-4-18,87,67,49,45,29,12,71,30,8,30.22,30.11,20,4,25,0.00
2013-4-19,87,68,48,53,35,16,76,38,8,30.18,29.98,15,2,17,0.00
2013-4-20,81,66,53,60,54,48,92,70,37,30.01,29.88,11,2,14,0.00
2013-4-21,74,63,57,60,57,54,97,81,54,30.03,29.95,10,2,14,0.00
2013-4-22,69,62,58,57,55,53,90,78,62,30.04,29.92,13,3,13,0.00
2013-4-23,74,62,58,57,54,51,84,74,56,30.00,29.88,12,2,12,0.00
2013-4-24,66,61,59,57,54,50,91,80,58,30.01,29.92,10,2,10,0.00
2013-4-25,71,64,59,56,54,51,84,70,52,30.13,29.98,12,2,13,0.00
2013-4-26,75,64,53,58,54,50,89,70,46,30.17,30.10,12,2,15,0.00
2013-4-27,79,64,54,61,56,52,92,77,49,30.17,30.00,11,2,13,0.00
2013-4-28,72,64,58,61,58,56,92,81,65,30.04,29.87,10,2,11,0.00
2013-4-29,69,62,58,60,57,55,94,84,71,29.93,29.80,14,2,14,0.00
2013-4-30,67,62,59,58,55,54,86,80,72,29.92,29.84,12,3,13,0.00
2013-5-1,73,66,60,59,57,55,87,75,60,30.11,29.92,11,2,14,0.00
2013-5-2,101,74,56,59,47,-6,93,53,2,30.13,29.98,16,2,20,0.00
2013-5-3,90,74,56,58,45,20,89,46,8,30.02,29.78,12,2,15,0.00
2013-5-4,73,65,59,60,57,53,93,78,58,29.87,29.76,14,4,15,0.00
2013-5-5,70,63,59,57,54,52,91,75,57,29.97,29.84,15,4,15,0.01
2013-5-6,70,63,58,61,57,53,97,83,60,30.03,29.92,13,3,16,0.03
2013-5-7,71,64,58,60,54,49,93,73,48,30.09,30.00,15,2,16,0.02
2013-5-8,71,64,58,58,54,49,89,71,48,30.12,30.07,15,3,18,0.02
2013-5-9,70,63,56,59,56,53,92,80,62,30.12,30.03,12,2,13,0.01
2013-5-10,79,67,58,63,60,55,95,79,54,30.11,30.01,12,2,12,0.01
2013-5-11,82,69,60,68,62,58,94,80,57,30.09,29.98,10,2,12,0.00
2013-5-12,87,72,62,68,62,58,96,75,39,30.07,29.90,11,2,11,0.00
2013-5-13,96,78,63,67,60,49,92,59,26,29.97,29.85,14,2,17,0.00
2013-5-14,81,68,60,62,58,51,88,71,41,30.01,29.90,16,2,16,0.00
2013-5-15,72,65,59,60,58,56,90,78,66,30.06,29.96,10,3,11,0.00
2013-5-16,72,65,62,60,57,55,85,76,65,30.00,29.90,11,2,12,0.00
2013-5-17,72,66,61,62,58,56,90,79,66,30.02,29.92,13,3,17,0.00
2013-5-18,73,65,59,60,58,55,90,77,60,30.06,29.98,12,2,14,0.00
2013-5-19,76,66,59,62,59,55,90,78,61,30.01,29.89,11,2,13,0.00
2013-5-20,78,68,59,64,61,56,93,80,61,29.97,29.89,11,2,14,0.00
2013-5-21,78,67,63,66,61,59,90,82,64,29.95,29.84,14,2,14,0.00
2013-5-22,75,66,62,62,58,56,88,76,62,29.87,29.79,12,3,12,0.00
2013-5-23,71,65,59,59,56,52,84,73,59,29.95,29.84,12,3,16,0.00
2013-5-24,72,65,60,58,56,52,83,74,60,30.01,29.93,14,2,14,0.00
2013-5-25,74,64,57,59,55,52,85,73,54,30.05,29.98,11,2,13,0.00
2013-5-26,72,64,57,60,56,53,87,77,62,30.07,30.00,14,3,14,0.00
2013-5-27,75,66,60,61,58,55,88,77,60,30.02,29.87,13,3,17,0.00
2013-5-28,75,67,61,63,60,58,89,80,62,29.90,29.75,14,3,16,0.00
2013-5-29,77,68,61,65,61,58,92,80,62,29.83,29.72,12,2,15,0.00
2013-5-30,78,68,61,65,61,59,92,81,62,29.90,29.77,13,2,15,0.00
2013-5-31,77,68,63,66,61,59,90,80,64,29.93,29.82,11,2,12,0.00
2013-6-1,78,69,64,67,63,61,90,82,67,29.87,29.77,12,2,13,0.00
2013-6-2,72,66,64,64,61,58,89,84,73,29.85,29.78,12,2,14,0.00
2013-6-3,75,67,63,63,60,58,86,78,67,29.91,29.81,11,2,15,0.00
2013-6-4,74,66,62,62,59,58,87,79,65,29.98,29.90,13,2,15,0.00
2013-6-5,75,67,62,61,59,57,88,76,58,30.02,29.91,13,2,15,0.00
2013-6-6,73,65,61,63,59,57,89,81,70,29.97,29.88,11,2,13,0.00
2013-6-7,73,65,61,64,59,58,90,83,69,29.93,29.80,11,2,13,0.00
2013-6-8,70,64,62,63,60,58,91,85,73,29.93,29.81,10,2,13,0.00
2013-6-9,72,64,60,63,59,56,90,84,73,29.95,29.88,11,2,14,0.00
2013-6-10,76,68,60,62,59,56,89,74,58,29.97,29.90,12,2,13,0.00
2013-6-11,82,70,61,68,62,58,92,77,56,29.95,29.88,12,2,13,0.00
2013-6-12,72,66,64,64,61,59,90,84,74,30.05,29.93,10,2,11,0.00
2013-6-13,77,68,63,64,60,59,88,77,62,30.02,29.90,12,2,14,0.00
2013-6-14,74,65,61,62,59,57,91,82,67,29.94,29.86,12,2,13,0.00
2013-6-15,73,66,61,61,58,57,86,77,63,29.99,29.91,10,2,12,0.00
2013-6-16,79,68,62,62,60,58,88,75,56,30.05,29.95,12,2,13,0.00
2013-6-17,75,67,61,65,61,58,93,81,65,30.00,29.89,12,2,14,0.00
2013-6-18,75,67,61,64,61,59,94,83,67,29.94,29.84,12,2,14,0.00
2013-6-19,78,68,62,64,61,59,92,78,54,29.89,29.80,14,3,15,0.00
2013-6-20,76,68,60,64,61,57,94,78,55,29.88,29.81,11,2,12,0.00
2013-6-21,76,68,60,64,61,58,94,79,61,29.92,29.84,13,2,15,0.00
2013-6-22,75,68,62,64,61,59,91,79,64,29.93,29.82,11,2,13,0.00
2013-6-23,73,67,64,63,60,58,90,79,66,29.90,29.81,11,2,12,0.00
2013-6-24,75,68,63,63,61,59,91,79,63,29.96,29.84,11,2,11,0.00
2013-6-25,79,69,63,66,62,61,91,81,59,30.01,29.90,10,2,12,0.00
2013-6-26,81,72,63,68,64,61,94,78,57,29.99,29.89,11,2,12,0.00
2013-6-27,82,71,64,69,65,63,95,82,61,30.03,29.96,12,2,12,0.00
2013-6-28,87,73,64,70,66,63,97,80,55,30.01,29.86,13,2,14,0.00
2013-6-29,86,75,66,72,66,63,93,75,55,29.89,29.73,14,2,14,0.00
2013-6-30,85,73,68,72,67,65,95,82,59,29.82,29.71,11,2,14,0.00
2013-7-1,90,73,66,70,67,64,95,83,47,29.90,29.81,12,2,13,0.00
2013-7-2,78,70,66,69,66,64,97,87,71,30.01,29.88,11,2,14,0.00
2013-7-3,80,71,66,69,65,62,94,84,66,29.95,29.80,11,2,12,0.00
2013-7-4,77,70,65,66,64,62,94,83,68,29.85,29.76,11,2,13,0.00
2013-7-5,78,69,65,67,64,62,91,83,68,29.85,29.77,12,2,14,0.00
2013-7-6,76,70,66,67,64,62,90,83,71,29.84,29.75,12,2,12,0.00
2013-7-7,83,72,66,69,65,62,90,79,58,29.87,29.76,10,2,12,0.00
2013-7-8,88,73,63,70,63,58,91,72,39,29.93,29.85,10,2,10,0.00
2013-7-9,79,71,65,68,64,61,91,80,64,30.01,29.90,14,2,15,0.00
2013-7-10,78,71,66,69,66,64,93,86,70,29.98,29.90,10,1,11,0.00
2013-7-11,74,70,68,68,66,65,91,87,80,29.98,29.89,8,2,10,0.00
2013-7-12,82,72,65,70,66,61,93,82,55,29.94,29.84,11,2,13,0.00
2013-7-13,81,71,64,68,64,61,92,80,61,29.97,29.85,12,2,14,0.00
2013-7-14,81,71,64,69,65,61,92,81,60,29.94,29.82,12,2,13,0.00
2013-7-15,85,73,65,69,63,55,94,74,43,29.88,29.79,12,2,12,0.00
2013-7-16,85,72,60,65,60,54,91,69,39,29.99,29.86,12,2,13,0.00
2013-7-17,88,73,61,66,59,54,90,63,34,30.02,29.94,12,2,12,0.00
2013-7-18,81,70,61,66,62,58,92,75,58,30.00,29.85,13,2,13,0.00
2013-7-19,77,68,63,67,63,60,93,84,68,29.92,29.83,11,2,13,0.00
2013-7-20,72,68,65,66,63,62,90,87,80,29.90,29.81,10,2,11,0.00
2013-7-21,71,67,65,66,64,62,92,88,84,29.93,29.81,8,1,9,0.00
2013-7-22,81,71,65,68,65,63,94,81,65,29.99,29.92,13,2,15,0.00
2013-7-23,82,72,65,68,64,60,90,78,60,30.03,29.92,11,2,12,0.00
2013-7-24,82,70,63,68,63,60,92,79,59,29.98,29.89,12,2,13,0.00
2013-7-25,79,69,63,67,63,60,91,80,63,30.02,29.92,9,2,12,0.00
2013-7-26,86,71,64,69,64,61,93,79,57,30.09,29.96,9,2,11,0.00
2013-7-27,75,68,64,67,63,59,91,82,73,30.02,29.88,13,2,15,0.00
2013-7-28,76,66,63,67,62,60,93,85,71,29.94,29.88,11,2,13,0.00
2013-7-29,75,68,63,63,60,58,89,77,65,30.05,29.92,11,2,12,0.00
2013-7-30,77,68,62,65,60,58,90,77,59,30.14,30.03,15,2,15,0.00
2013-7-31,74,67,62,63,60,58,90,80,67,30.12,30.00,13,2,13,0.00
2013-8-1,76,67,62,64,60,58,89,80,64,30.04,29.91,12,2,12,0.00
2013-8-2,77,68,62,64,61,59,91,80,63,29.98,29.91,14,2,14,0.00
2013-8-3,76,69,64,66,62,60,90,80,68,30.01,29.93,12,2,12,0.00
2013-8-4,78,68,63,66,62,59,89,80,64,30.03,29.92,11,2,12,0.00
2013-8-5,78,67,60,65,61,58,95,82,58,30.02,29.92,11,2,13,0.00
2013-8-6,76,68,62,63,60,58,92,79,61,30.05,29.97,12,2,13,0.00
2013-8-7,75,67,61,64,60,58,92,80,63,30.10,29.98,11,2,12,0.00
2013-8-8,76,67,59,64,61,57,95,81,63,30.02,29.91,12,2,13,0.00
2013-8-9,74,66,60,63,60,58,94,82,68,29.98,29.92,11,2,13,0.00
2013-8-10,74,67,61,63,60,59,93,81,65,30.05,29.96,11,2,12,0.00
2013-8-11,78,68,61,64,61,59,93,79,55,30.01,29.89,13,2,13,0.00
2013-8-12,76,68,62,65,62,59,91,81,67,29.99,29.89,11,2,12,0.00
2013-8-13,78,68,62,66,63,60,93,83,67,29.99,29.87,10,2,11,0.00
2013-8-14,79,68,63,68,63,61,93,86,69,29.94,29.84,11,2,13,0.00
2013-8-15,77,69,64,68,64,62,93,84,70,29.96,29.89,12,2,13,0.00
2013-8-16,82,71,64,69,64,62,98,82,56,29.97,29.89,11,2,11,0.00
2013-8-17,86,71,62,67,64,61,97,80,49,29.96,29.81,11,2,11,0.00
2013-8-18,77,68,63,66,63,61,94,85,69,29.92,29.84,12,2,13,0.00
2013-8-19,76,69,65,67,64,62,90,85,71,29.97,29.86,13,1,13,0.00
2013-8-20,82,69,64,68,63,61,92,82,61,29.95,29.84,9,1,11,0.00
2013-8-21,85,72,62,68,62,57,92,71,46,29.93,29.83,11,2,11,0.00
2013-8-22,88,76,63,67,60,53,89,62,31,29.93,29.80,10,2,11,0.00
2013-8-23,88,72,62,66,61,56,93,71,37,29.88,29.73,10,2,11,0.00
2013-8-24,78,68,61,67,62,59,95,84,60,29.90,29.77,11,1,12,0.00
2013-8-25,83,68,61,66,62,60,96,82,54,29.92,29.85,10,2,11,0.00
2013-8-26,89,76,65,68,62,53,91,64,38,29.92,29.80,9,2,10,0.00
2013-8-27,89,75,67,67,62,56,88,68,33,29.85,29.76,10,2,10,0.00
2013-8-28,92,78,67,68,61,48,86,60,27,29.89,29.78,10,1,11,0.00
2013-8-29,96,80,67,68,63,52,87,60,30,29.93,29.85,8,1,10,0.00
2013-8-30,92,81,72,73,67,62,78,65,49,29.97,29.89,11,2,13,0.00
2013-8-31,92,80,74,75,70,62,84,71,55,29.97,29.86,12,2,15,0.00
2013-9-1,90,79,71,75,69,64,87,74,58,29.93,29.84,13,2,14,0.00
2013-9-2,90,76,68,73,69,66,94,79,55,29.93,29.79,10,2,10,0.00
2013-9-3,94,79,70,73,68,66,89,71,47,29.90,29.80,12,2,12,0.00
2013-9-4,96,80,70,72,66,61,87,64,38,29.90,29.81,11,2,12,0.00
2013-9-5,96,80,69,70,65,59,85,63,34,29.88,29.80,9,1,11,0.00
2013-9-6,95,80,69,70,65,55,88,64,28,29.86,29.77,9,2,10,0.00
2013-9-7,95,78,68,71,65,57,89,68,34,29.86,29.77,10,2,11,0.00
2013-9-8,84,73,66,69,64,59,92,74,55,29.86,29.74,10,2,11,0.00
2013-9-9,81,70,64,66,62,59,91,77,59,29.83,29.74,11,2,13,0.00
2013-9-10,77,68,62,64,61,59,92,79,63,29.95,29.82,12,2,12,0.00
2013-9-11,78,68,62,65,62,59,92,81,63,30.02,29.92,11,2,15,0.00
2013-9-12,84,71,61,68,63,58,93,75,49,29.95,29.81,11,2,13,0.00
2013-9-13,80,70,61,67,63,59,94,80,54,29.84,29.66,9,2,10,0.00
2013-9-14,84,71,62,69,64,60,97,80,50,29.74,29.62,12,1,12,0.00
2013-9-15,89,73,64,71,65,61,97,78,49,29.78,29.70,9,1,12,0.00
2013-9-16,88,74,63,69,64,58,94,74,38,29.83,29.72,11,1,12,0.00
2013-9-17,77,67,62,66,63,60,96,87,67,29.84,29.74,10,2,11,0.00
2013-9-18,77,70,64,64,62,60,93,77,63,29.82,29.75,12,2,13,0.00
2013-9-19,79,68,62,67,63,59,95,85,64,29.84,29.77,11,2,12,0.00
2013-9-20,71,68,66,65,63,60,88,85,79,29.90,29.82,9,2,9,0.00
2013-9-21,77,68,64,63,60,59,90,76,61,29.93,29.81,11,2,12,0.00
2013-9-22,76,67,59,63,59,53,93,77,48,29.86,29.79,13,2,14,0.00
2013-9-23,92,73,56,62,55,47,88,60,24,29.90,29.80,10,1,11,0.00
2013-9-24,83,72,61,63,56,44,86,63,27,29.93,29.83,14,2,14,0.00
2013-9-25,77,68,63,65,61,54,90,78,63,29.87,29.72,12,2,13,0.00
2013-9-26,75,67,60,60,55,47,86,68,42,29.89,29.73,16,2,16,0.00
2013-9-27,86,68,53,54,47,37,84,52,20,29.99,29.89,13,2,13,0.00
2013-9-28,91,71,53,50,43,30,71,43,13,30.04,29.94,13,2,14,0.00
2013-9-29,84,69,54,60,50,43,71,53,26,30.08,29.96,11,1,12,0.00
2013-9-30,80,68,58,65,60,53,97,76,48,30.00,29.85,10,1,10,0.00
2013-10-1,80,68,58,65,61,54,93,80,61,29.95,29.87,10,2,10,0.00
2013-10-2,79,68,64,63,60,58,86,78,57,29.99,29.88,9,2,11,0.00
2013-10-3,76,67,62,63,61,59,91,82,65,29.94,29.83,12,2,14,0.00
2013-10-4,94,74,60,62,44,11,92,51,6,30.03,29.89,23,4,23,0.00
2013-10-5,98,80,63,42,29,18,47,17,6,30.11,30.01,25,6,28,0.00
2013-10-6,96,73,53,50,37,19,68,35,7,30.09,29.95,10,2,11,0.00
2013-10-7,83,68,57,62,53,42,89,61,32,29.99,29.89,10,1,11,0.00
2013-10-8,74,65,58,61,58,54,91,79,63,29.94,29.83,12,2,14,0.00
2013-10-9,67,61,54,56,53,48,89,76,60,29.84,29.73,20,3,20,0.05
2013-10-10,73,60,49,56,52,48,95,77,49,30.03,29.83,11,1,12,0.02
2013-10-11,76,62,51,60,54,48,92,78,51,30.07,29.95,12,1,12,0.03
2013-10-12,73,63,54,62,57,51,94,83,66,30.00,29.90,11,2,13,0.00
2013-10-13,73,63,58,59,57,54,93,81,60,30.04,29.95,10,1,11,0.00
2013-10-14,91,67,53,58,54,45,95,69,23,30.04,29.89,9,1,11,0.00
2013-10-15,94,69,54,58,50,32,92,58,13,29.97,29.87,10,1,12,0.00
2013-10-16,91,72,55,53,38,27,85,35,13,30.07,29.97,10,2,12,0.00
2013-10-17,85,66,52,63,49,40,79,56,31,30.05,29.93,10,1,10,0.00
2013-10-18,82,66,52,62,53,46,87,65,34,30.03,29.92,8,1,9,0.00
2013-10-19,79,66,54,64,56,48,97,74,38,30.03,29.96,11,1,11,0.00
2013-10-20,76,64,58,63,59,56,96,86,63,30.01,29.90,9,1,9,0.00
2013-10-21,74,64,58,61,58,56,95,83,62,30.00,29.91,7,1,9,0.00
2013-10-22,77,63,54,65,58,52,96,85,63,30.03,29.90,8,1,9,0.00
2013-10-23,68,63,58,59,57,56,93,83,72,29.99,29.92,10,1,11,0.00
2013-10-24,71,63,58,60,56,54,87,78,66,30.07,29.97,12,1,12,0.00
2013-10-25,73,63,56,61,58,52,91,83,64,30.15,30.01,9,1,9,0.00
2013-10-26,74,62,55,64,58,53,96,87,70,30.11,29.98,8,1,8,0.00
2013-10-27,70,63,58,63,59,55,96,89,76,30.00,29.83,12,2,12,0.00
2013-10-28,66,61,57,58,54,51,91,77,61,29.96,29.84,13,3,16,0.00
2013-10-29,67,59,52,58,52,50,94,78,59,30.03,29.95,10,2,13,0.04
2013-10-30,74,60,49,57,51,46,92,75,45,30.10,29.99,9,1,10,0.00
2013-10-31,83,63,48,55,48,41,91,63,25,30.12,29.98,9,1,10,0.00
2013-11-1,86,66,48,55,47,40,85,55,22,30.12,29.93,8,1,10,0.00
2013-11-2,81,64,52,60,51,39,91,65,25,30.01,29.89,11,1,11,0.00
2013-11-3,69,63,59,59,56,54,92,81,66,29.95,29.84,10,1,11,0.00
2013-11-4,69,62,55,57,54,51,86,75,65,29.97,29.82,8,1,11,0.00
2013-11-5,80,62,48,56,43,28,92,56,18,30.15,29.96,7,1,7,0.00
2013-11-6,83,64,47,45,37,26,68,40,14,30.22,30.10,7,1,8,0.00
2013-11-7,86,66,50,45,38,22,68,40,11,30.14,30.00,7,1,8,0.00
2013-11-8,75,62,48,60,51,40,93,69,39,30.06,29.95,8,1,8,0.00
2013-11-9,76,62,55,59,54,42,95,80,30,30.09,30.01,8,1,9,0.00
2013-11-10,85,62,50,57,51,38,94,71,21,30.15,30.04,11,1,12,0.01
2013-11-11,79,61,47,60,50,43,88,68,42,30.15,30.03,10,1,10,0.00
2013-11-12,76,62,52,60,51,48,90,71,43,30.19,30.07,5,0,6,0.00
2013-11-13,91,68,50,56,49,40,87,56,19,30.07,29.88,7,0,7,0.00
2013-11-14,88,68,52,60,50,40,90,59,20,29.94,29.79,11,1,11,0.00
2013-11-15,71,63,59,60,58,55,92,82,66,29.79,29.69,9,2,11,0.00
2013-11-16,69,61,56,57,53,50,91,75,54,29.96,29.77,9,1,11,0.01
2013-11-17,70,61,54,57,53,49,88,77,58,30.12,29.96,8,1,9,0.00
2013-11-18,69,60,51,58,54,48,92,81,63,30.18,30.06,9,1,11,0.00
2013-11-19,67,61,58,57,55,53,87,80,63,30.11,29.97,10,1,10,0.00
2013-11-20,68,61,56,59,56,52,93,83,67,30.00,29.91,8,1,9,0.01
2013-11-21,65,60,56,61,57,52,97,89,76,29.91,29.85,13,2,13,0.02
2013-11-22,67,58,53,53,47,41,91,69,47,29.98,29.85,14,3,15,0.02
2013-11-23,72,58,50,50,46,42,84,66,38,30.11,29.97,11,1,11,0.03
2013-11-24,71,57,46,54,46,42,86,69,42,30.22,30.11,9,1,11,0.01
2013-11-25,73,58,46,52,46,42,87,67,37,30.27,30.17,11,1,11,0.01
2013-11-26,79,60,46,52,46,40,88,64,27,30.22,30.06,11,1,11,0.00
2013-11-27,78,60,49,49,46,42,83,62,34,30.06,29.90,10,1,11,0.00
2013-11-28,73,59,48,57,50,42,86,72,44,30.08,29.91,9,1,10,0.00
2013-11-29,67,59,53,57,53,50,93,82,64,30.20,30.07,9,1,10,0.02
2013-11-30,76,61,52,55,51,48,93,71,38,30.21,30.08,8,1,8,0.01
2013-12-1,82,64,49,52,46,39,90,58,22,30.23,30.09,6,1,7,0.02
2013-12-2,73,59,47,51,45,40,83,63,33,30.13,29.93,5,0,7,0.01
2013-12-3,66,57,48,56,50,42,85,77,66,29.94,29.78,11,2,13,0.01
2013-12-4,67,54,47,47,40,32,82,61,41,29.99,29.81,11,2,13,0.00
2013-12-5,65,52,43,44,40,37,80,65,43,30.13,29.98,10,1,10,0.00
2013-12-6,61,51,43,46,42,38,84,71,50,30.21,30.12,12,2,12,0.00
2013-12-7,58,49,42,52,43,35,92,78,59,30.15,30.03,30,1,35,0.01
2013-12-8,57,46,35,44,37,32,91,73,51,30.24,30.12,8,1,8,0.02
2013-12-9,67,51,38,38,18,-1,84,38,8,30.33,30.22,22,4,25,0.00
2013-12-10,70,54,41,36,20,6,56,29,12,30.29,30.10,12,2,13,0.00
2013-12-11,78,53,37,47,34,23,81,52,14,30.19,30.12,9,1,10,0.00
2013-12-12,66,54,42,53,46,39,90,76,44,30.25,30.15,9,1,9,0.00
2013-12-13,68,53,43,52,46,41,92,78,40,30.26,30.15,7,1,8,0.00
2013-12-14,76,57,41,47,39,29,93,58,19,30.31,30.20,8,1,10,0.00
2013-12-15,81,62,43,38,33,23,71,40,12,30.26,30.08,9,1,10,0.00
2013-12-16,82,64,51,50,41,34,64,45,21,30.14,30.06,10,1,11,0.00
2013-12-17,78,62,48,57,50,43,85,67,33,30.15,30.02,8,0,8,0.00
2013-12-18,70,60,54,59,54,50,90,82,52,30.03,29.88,10,1,12,0.00
2013-12-19,59,54,47,52,49,44,90,82,73,29.89,29.74,7,1,8,0.05
2013-12-20,64,52,42,54,47,40,96,84,63,29.97,29.80,8,1,10,0.01
2013-12-21,64,53,44,53,47,42,93,83,63,30.11,29.95,7,1,8,0.02
2013-12-22,73,55,43,54,48,40,93,79,46,30.28,30.11,8,1,10,0.00
2013-12-23,78,59,44,50,43,37,92,61,24,30.34,30.18,8,1,8,0.00
2013-12-24,77,59,45,52,45,39,83,62,31,30.22,30.10,6,1,7,0.00
2013-12-25,86,68,49,45,28,15,79,28,9,30.22,30.11,19,4,20,0.00
2013-12-26,86,64,47,32,25,12,51,28,7,30.19,30.07,14,2,17,0.00
2013-12-27,84,60,44,41,33,15,63,41,9,30.18,30.05,8,1,9,0.00
2013-12-28,73,58,49,54,44,34,89,63,30,30.06,29.95,9,1,10,0.00
2013-12-29,84,60,46,52,39,18,95,58,11,30.17,30.03,8,1,8,0.01
2013-12-30,79,56,40,45,36,23,78,52,16,30.29,30.16,8,1,8,0.00
2013-12-31,70,53,40,54,43,34,88,70,30,30.24,30.11,8,1,9,0.00
2014-1-1,71,54,42,55,46,39,92,78,38,30.18,30.06,8,0,9,0.00
2014-1-2,76,56,43,55,48,40,92,75,31,30.13,30.01,9,1,9,0.00